createdAt,value
2022-11-03T00:03:34.853Z,9.54
2022-11-03T00:09:08.628Z,9.49
2022-11-03T00:14:39.972Z,9.48
2022-11-03T00:20:11.490Z,9.47
2022-11-03T00:25:42.584Z,9.41
2022-11-03T00:31:19.547Z,9.38
2022-11-03T00:36:51.375Z,9.36
2022-11-03T00:42:22.591Z,9.33
2022-11-03T00:48:15.233Z,9.31
2022-11-03T00:53:47.595Z,9.26
2022-11-03T00:59:18.533Z,9.20
2022-11-03T01:05:22.167Z,9.18
2022-11-03T01:11:12.231Z,9.15
2022-11-03T01:16:43.499Z,9.10
2022-11-03T01:22:15.484Z,9.11
2022-11-03T01:27:46.875Z,9.10
2022-11-03T01:33:18.602Z,9.05
2022-11-03T01:38:49.718Z,9.03
2022-11-03T01:44:24.883Z,9.00
2022-11-03T01:50:04.786Z,8.97
2022-11-03T01:55:40.195Z,8.95
2022-11-03T02:01:11.746Z,8.92
2022-11-03T02:06:43.300Z,8.90
2022-11-03T02:12:14.989Z,8.89
2022-11-03T02:17:47.902Z,8.87
2022-11-03T02:23:42.216Z,8.83
2022-11-03T02:29:13.171Z,8.80
2022-11-03T02:34:54.954Z,8.76
2022-11-03T02:40:31.637Z,8.74
2022-11-03T02:46:05.201Z,8.73
2022-11-03T02:51:36.148Z,8.68
2022-11-03T02:57:17.039Z,8.66
2022-11-03T03:02:54.191Z,8.61
2022-11-03T03:08:26.458Z,8.60
2022-11-03T03:13:57.792Z,8.57
2022-11-03T03:19:34.283Z,8.53
2022-11-03T03:25:21.963Z,8.50
2022-11-03T03:30:55.933Z,8.45
2022-11-03T03:36:27.280Z,8.47
2022-11-03T03:41:59.641Z,8.46
2022-11-03T03:47:32.650Z,8.43
2022-11-03T03:53:07.026Z,8.41
2022-11-03T03:58:37.868Z,8.39
2022-11-03T04:04:08.872Z,8.37
2022-11-03T04:09:40.191Z,8.35
2022-11-03T04:15:31.716Z,8.35
2022-11-03T04:21:22.024Z,8.36
2022-11-03T04:26:53.582Z,8.33
2022-11-03T04:32:25.271Z,8.33
2022-11-03T04:38:16.721Z,8.32
2022-11-03T04:43:47.891Z,8.33
2022-11-03T04:49:23.569Z,8.31
2022-11-03T04:54:54.651Z,8.32
2022-11-03T05:00:25.997Z,8.30
2022-11-03T05:05:57.631Z,8.30
2022-11-03T05:11:32.713Z,8.30
2022-11-03T05:17:14.991Z,8.32
2022-11-03T05:22:46.273Z,8.30
2022-11-03T05:28:26.034Z,8.27
2022-11-03T05:33:59.637Z,8.26
2022-11-03T05:39:34.775Z,8.28
2022-11-03T05:45:21.617Z,8.29
2022-11-03T05:50:53.049Z,8.27
2022-11-03T05:56:25.178Z,8.26
2022-11-03T06:01:59.851Z,8.27
2022-11-03T06:07:32.064Z,8.26
2022-11-03T06:13:11.722Z,8.25
2022-11-03T06:18:42.897Z,8.26
2022-11-03T06:24:15.432Z,8.25
2022-11-03T06:30:02.299Z,8.24
2022-11-03T06:35:35.169Z,8.24
2022-11-03T06:41:18.130Z,8.24
2022-11-03T06:46:49.390Z,8.23
2022-11-03T06:52:26.364Z,8.23
2022-11-03T06:58:23.377Z,8.24
2022-11-03T07:03:58.529Z,8.26
2022-11-03T07:09:30.091Z,8.27
2022-11-03T07:15:01.506Z,8.28
2022-11-03T07:20:32.875Z,8.32
2022-11-03T07:26:03.795Z,8.36
2022-11-03T07:31:34.965Z,8.39
2022-11-03T07:37:08.084Z,8.40
2022-11-03T07:42:39.243Z,8.46
2022-11-03T07:48:19.374Z,8.53
2022-11-03T07:53:53.316Z,8.57
2022-11-03T07:59:28.385Z,8.73
2022-11-03T08:04:59.875Z,8.77
2022-11-03T08:10:31.049Z,8.73
2022-11-03T08:16:01.987Z,8.70
2022-11-03T08:21:33.182Z,8.67
2022-11-03T08:27:05.532Z,8.68
2022-11-03T08:32:37.399Z,8.69
2022-11-03T08:38:08.662Z,8.74
2022-11-03T08:43:40.656Z,8.77
2022-11-03T08:49:11.956Z,8.83
2022-11-03T08:54:43.439Z,8.90
2022-11-03T09:00:17.236Z,8.97
2022-11-03T09:05:48.184Z,9.02
2022-11-03T09:11:19.363Z,9.11
2022-11-03T09:16:50.558Z,9.18
2022-11-03T09:22:22.741Z,9.21
2022-11-03T09:27:53.850Z,9.30
2022-11-03T09:33:25.063Z,9.37
2022-11-03T09:38:56.867Z,9.44
2022-11-03T09:44:28.134Z,9.51
2022-11-03T09:50:00.379Z,9.57
2022-11-03T09:55:33.080Z,9.65
2022-11-03T10:01:04.571Z,9.72
2022-11-03T10:06:35.611Z,9.83
2022-11-03T10:12:09.704Z,9.91
2022-11-03T10:17:40.518Z,9.99
2022-11-03T10:23:11.792Z,10.09
2022-11-03T10:28:57.746Z,10.18
2022-11-03T10:34:36.741Z,10.25
2022-11-03T10:40:48.899Z,10.34
2022-11-03T10:46:44.672Z,10.41
2022-11-03T10:52:21.380Z,10.49
2022-11-03T10:57:55.910Z,10.56
2022-11-03T11:03:27.317Z,10.62
2022-11-03T11:09:02.628Z,10.72
2022-11-03T11:14:39.687Z,10.82
2022-11-03T11:20:29.246Z,10.87
2022-11-03T11:26:09.231Z,10.94
2022-11-03T11:31:46.503Z,11.00
2022-11-03T11:37:20.579Z,11.08
2022-11-03T11:43:04.921Z,11.11
2022-11-03T11:48:36.353Z,11.15
2022-11-03T11:54:17.951Z,11.18
2022-11-03T11:59:51.304Z,11.24
2022-11-03T12:05:30.683Z,11.27
2022-11-03T12:11:03.868Z,11.29
2022-11-03T12:16:36.917Z,11.34
2022-11-03T12:22:29.793Z,11.39
2022-11-03T12:28:02.455Z,11.42
2022-11-03T12:33:33.782Z,11.48
2022-11-03T12:39:04.715Z,11.52
2022-11-03T12:44:39.936Z,11.51
2022-11-03T12:50:13.944Z,11.53
2022-11-03T12:55:45.253Z,11.57
2022-11-03T13:01:16.913Z,11.59
2022-11-03T13:06:48.368Z,11.63
2022-11-03T13:12:31.473Z,11.66
2022-11-03T13:18:17.852Z,11.70
2022-11-03T13:23:49.421Z,11.72
2022-11-03T13:29:20.955Z,11.76
2022-11-03T13:34:51.944Z,11.76
2022-11-03T13:46:13.833Z,11.84
2022-11-03T13:51:44.944Z,11.87
2022-11-03T14:08:59.032Z,11.88
2022-11-03T14:14:30.126Z,11.88
2022-11-03T14:20:07.696Z,11.88
2022-11-03T14:25:39.296Z,11.86
2022-11-03T14:31:10.756Z,11.84
2022-11-03T14:36:42.338Z,11.82
2022-11-03T14:42:17.372Z,11.77
2022-11-03T14:47:48.688Z,11.73
2022-11-03T14:53:20.581Z,11.70
2022-11-03T14:58:52.125Z,11.67
2022-11-03T15:04:23.301Z,11.65
2022-11-03T15:09:55.111Z,11.65
2022-11-03T15:15:26.351Z,11.64
2022-11-03T15:20:57.738Z,11.61
2022-11-03T15:26:29.061Z,11.57
2022-11-03T15:32:00.308Z,11.55
2022-11-03T15:37:31.833Z,11.51
2022-11-03T15:43:03.363Z,11.47
2022-11-03T15:48:34.815Z,11.44
2022-11-03T15:54:05.840Z,11.40
2022-11-03T15:59:36.803Z,11.39
2022-11-03T16:05:09.578Z,11.36
2022-11-03T16:10:45.922Z,11.32
2022-11-03T16:16:21.133Z,11.27
2022-11-03T16:21:52.478Z,11.25
2022-11-03T16:27:23.633Z,11.21
2022-11-03T16:32:54.586Z,11.17
2022-11-03T16:38:25.631Z,11.16
2022-11-03T16:43:56.806Z,11.15
2022-11-03T16:49:28.083Z,11.12
2022-11-03T16:54:59.493Z,11.11
2022-11-03T17:00:31.298Z,11.08
2022-11-03T17:06:02.647Z,11.08
2022-11-03T17:11:36.943Z,11.07
2022-11-03T17:17:08.378Z,11.05
2022-11-03T17:22:39.395Z,11.03
2022-11-03T17:28:11.164Z,11.01
2022-11-03T17:33:42.486Z,11.00
2022-11-03T17:39:16.268Z,10.98
2022-11-03T17:44:49.909Z,10.95
2022-11-03T17:50:23.427Z,10.94
2022-11-03T17:56:27.954Z,10.91
2022-11-03T18:01:46.360Z,10.90
2022-11-03T18:07:30.208Z,10.86
2022-11-03T18:13:19.614Z,10.82
2022-11-03T18:18:51.018Z,10.81
2022-11-03T18:24:22.441Z,10.81
2022-11-03T18:29:53.384Z,10.76
2022-11-03T18:35:28.209Z,10.74
2022-11-03T18:40:59.634Z,10.72
2022-11-03T18:46:30.588Z,10.71
2022-11-03T18:52:04.816Z,10.70
2022-11-03T18:57:36.761Z,10.67
2022-11-03T19:03:17.007Z,10.66
2022-11-03T19:08:48.471Z,10.63
2022-11-03T19:14:26.521Z,10.61
2022-11-03T19:19:57.683Z,10.63
2022-11-03T19:25:29.043Z,10.60
2022-11-03T19:31:00.515Z,10.59
2022-11-03T19:36:34.397Z,10.58
2022-11-03T19:42:29.701Z,10.57
2022-11-03T19:53:54.237Z,10.53
2022-11-03T19:59:26.425Z,10.52
2022-11-03T20:04:58.127Z,10.51
2022-11-03T20:10:31.786Z,10.50
2022-11-03T20:16:14.993Z,10.49
2022-11-03T20:21:46.346Z,10.47
2022-11-03T20:27:19.505Z,10.44
2022-11-03T20:32:51.060Z,10.43
2022-11-03T20:38:23.175Z,10.40
2022-11-03T20:43:55.367Z,10.40
2022-11-03T20:49:26.696Z,10.36
2022-11-03T20:54:57.790Z,10.36
2022-11-03T21:00:28.892Z,10.35
2022-11-03T21:05:59.866Z,10.32
2022-11-03T21:11:36.946Z,10.31
2022-11-03T21:17:32.091Z,10.26
2022-11-03T21:23:09.356Z,10.23
2022-11-03T21:28:40.715Z,10.19
2022-11-03T21:34:11.719Z,10.17
2022-11-03T21:39:46.173Z,10.14
2022-11-03T21:45:18.910Z,10.09
2022-11-03T21:50:50.311Z,10.05
2022-11-03T21:56:21.357Z,10.04
2022-11-03T22:01:55.243Z,10.02
2022-11-03T22:07:26.781Z,10.02
2022-11-03T22:12:57.664Z,9.99
2022-11-03T22:18:28.789Z,9.97
2022-11-03T22:24:18.716Z,9.94
2022-11-03T22:30:08.788Z,9.92
2022-11-03T22:35:58.450Z,9.90
2022-11-03T22:41:48.783Z,9.89
2022-11-03T22:47:20.114Z,9.88
2022-11-03T22:52:51.431Z,9.84
2022-11-03T22:58:27.855Z,9.84
2022-11-03T23:04:01.970Z,9.82
2022-11-03T23:09:33.402Z,9.77
2022-11-03T23:15:23.550Z,9.77
2022-11-03T23:21:08.723Z,9.77
2022-11-03T23:26:40.138Z,9.76
2022-11-03T23:32:11.119Z,9.72
2022-11-03T23:37:42.028Z,9.72
2022-11-03T23:43:13.180Z,9.72
2022-11-03T23:48:47.714Z,9.71
2022-11-03T23:54:19.049Z,9.71
2022-11-03T23:59:49.931Z,9.68
